Trout Creek, Utah
Current Conditions -  °F | °C
As of 6:15 PM on Thursday 27 Nov 2014 (Local Time) from KENV Reporting Station
Clear Clear  
Wind Chill: 45°   Ceiling: Unl
Heat Index: 45°   Visibility: 10mi
Dew Point: 30°   Wind: 0mph
Humidity: 57%   Direction: NA
Pressure: 30.16"   Gusts: NA
Location:  40.2503°N, 113.457°W
Report Text: KENV 280115Z AUTO 00000KT 10SM CLR 07/M01 A3016 RMK AO1
Loading
Personal Weather Stations






























Interactive Weather Map New forecast layout! Learn more

10-Day Weather Forecast

Advertisements
Track Severe Weather on mobile